Time;durP1;ratioP1;P1;durP2;ratioP2;P2;SDS_P1;SDS_P2;PMS_P1;PMS_P2;Temp;Humidity;BMP_temperature;BMP_pressure;BME280_temperature;BME280_humidity;BME280_pressure;Samples;Min_cycle;Max_cycle;Signal;HPM_P1;HPM_P2
2022/11/19 00:01:19;;;;;;;1.52;0.90;;;21.90;56.10;;;;;;5032704;28;20037;-64
2022/11/19 00:03:45;;;;;;;2.53;1.00;;;21.90;56.10;;;;;;5027859;28;20469;-65
2022/11/19 00:06:22;;;;;;;1.40;0.80;;;21.90;56.10;;;;;;5025696;28;20418;-65
2022/11/19 00:08:48;;;;;;;1.92;1.10;;;21.90;56.00;;;;;;5033995;28;20021;-64
2022/11/19 00:14:08;;;;;;;1.77;0.95;;;21.90;56.00;;;;;;5030101;28;20087;-64
2022/11/19 00:16:34;;;;;;;1.95;1.00;;;21.90;56.00;;;;;;5033801;28;20037;-65
2022/11/19 00:18:59;;;;;;;1.90;1.00;;;21.90;56.10;;;;;;5038183;28;20037;-65
2022/11/19 00:21:25;;;;;;;2.55;1.20;;;21.90;56.00;;;;;;5037946;28;20099;-66
2022/11/19 00:23:54;;;;;;;3.80;1.10;;;21.90;55.90;;;;;;5036633;28;20100;-64
2022/11/19 00:26:20;;;;;;;2.00;1.00;;;21.90;55.90;;;;;;5035694;28;20029;-63
2022/11/19 00:28:45;;;;;;;1.35;0.88;;;21.90;55.90;;;;;;5035226;28;20477;-64
2022/11/19 00:31:13;;;;;;;1.60;1.00;;;21.90;55.90;;;;;;5034261;28;20028;-64
2022/11/19 00:33:40;;;;;;;2.05;1.13;;;21.90;55.90;;;;;;5034768;28;20045;-64
2022/11/19 00:36:09;;;;;;;1.38;0.90;;;21.80;55.90;;;;;;5033228;28;20055;-64
2022/11/19 00:38:35;;;;;;;2.17;0.95;;;21.80;55.90;;;;;;5031970;28;20065;-65
2022/11/19 00:41:01;;;;;;;1.60;0.93;;;21.80;55.90;;;;;;5031862;28;20505;-65
2022/11/19 00:46:12;;;;;;;1.63;0.88;;;21.80;55.90;;;;;;5039495;28;20387;-64
2022/11/19 00:48:40;;;;;;;2.00;1.00;;;21.70;55.90;;;;;;5035738;28;20035;-64
2022/11/19 00:51:07;;;;;;;2.10;1.00;;;21.70;55.90;;;;;;5034799;28;20045;-63
2022/11/19 00:53:33;;;;;;;1.65;1.00;;;21.70;56.50;;;;;;5035517;28;20059;-65
2022/11/19 00:56:03;;;;;;;1.88;1.00;;;21.70;56.00;;;;;;5037079;28;20369;-64
2022/11/19 00:58:29;;;;;;;1.70;0.90;;;21.60;56.00;;;;;;5043289;28;20041;-64
2022/11/19 01:00:55;;;;;;;2.45;1.17;;;21.60;56.00;;;;;;5041934;28;20064;-66
2022/11/19 01:03:22;;;;;;;1.42;0.90;;;21.60;56.00;;;;;;5042345;28;20393;-65
2022/11/19 01:05:48;;;;;;;1.52;0.90;;;21.60;56.10;;;;;;5035783;28;20432;-64
2022/11/19 01:08:13;;;;;;;1.90;0.90;;;21.60;56.10;;;;;;5035592;28;20025;-64
2022/11/19 01:10:39;;;;;;;1.30;0.90;;;21.60;56.10;;;;;;5039611;28;20033;-65
2022/11/19 01:15:50;;;;;;;1.83;0.95;;;21.50;56.10;;;;;;5032711;28;20124;-66
2022/11/19 01:18:16;;;;;;;1.50;0.90;;;21.50;56.20;;;;;;5032653;28;20025;-66
2022/11/19 01:20:43;;;;;;;1.33;0.90;;;21.50;56.70;;;;;;5038166;28;20037;-66
2022/11/19 01:23:08;;;;;;;1.83;0.90;;;21.40;56.20;;;;;;5037537;28;20029;-65
2022/11/19 01:25:35;;;;;;;1.92;0.90;;;21.40;56.20;;;;;;5042098;28;20082;-65
2022/11/19 01:28:01;;;;;;;1.05;0.80;;;21.40;56.20;;;;;;5037218;28;20021;-66
2022/11/19 01:30:26;;;;;;;1.77;1.05;;;21.40;56.20;;;;;;5031214;28;20061;-65
2022/11/19 01:32:52;;;;;;;1.55;0.85;;;21.40;56.30;;;;;;5039821;28;20056;-65
2022/11/19 01:35:18;;;;;;;2.03;1.27;;;21.40;56.30;;;;;;5037718;28;20026;-65
2022/11/19 01:37:43;;;;;;;2.20;0.82;;;21.40;56.30;;;;;;5044564;28;20030;-66
2022/11/19 01:40:10;;;;;;;1.58;0.90;;;21.40;56.40;;;;;;5036980;28;20033;-65
2022/11/19 01:43:08;;;;;;;1.10;0.82;;;21.30;56.40;;;;;;5028260;28;20029;-66
2022/11/19 01:45:34;;;;;;;1.52;1.00;;;21.30;56.40;;;;;;5037443;28;20033;-65
2022/11/19 01:48:12;;;;;;;1.95;1.00;;;21.30;56.50;;;;;;5042575;28;20034;-65
2022/11/19 01:50:43;;;;;;;1.77;0.95;;;21.30;56.50;;;;;;5038591;28;20472;-65
2022/11/19 01:53:10;;;;;;;1.80;0.90;;;21.20;56.50;;;;;;5040236;28;20608;-66
2022/11/19 01:55:38;;;;;;;1.42;0.80;;;21.20;56.50;;;;;;5039368;28;20021;-64
2022/11/19 01:58:06;;;;;;;1.60;0.80;;;21.20;56.50;;;;;;5034333;28;20465;-64
2022/11/19 02:00:32;;;;;;;1.88;0.80;;;21.20;56.50;;;;;;5030791;28;20092;-67
2022/11/19 02:02:58;;;;;;;1.13;0.70;;;21.20;56.60;;;;;;5041037;28;20057;-65
2022/11/19 02:05:25;;;;;;;1.50;0.90;;;21.20;56.60;;;;;;5036332;28;20072;-65
2022/11/19 02:07:56;;;;;;;1.50;0.80;;;21.20;56.60;;;;;;5036087;28;20017;-67
2022/11/19 02:10:48;;;;;;;1.27;0.80;;;21.10;57.10;;;;;;5037499;28;20049;-66
2022/11/19 02:13:17;;;;;;;1.08;0.80;;;21.10;56.60;;;;;;5026275;28;20030;-65
2022/11/19 02:16:18;;;;;;;2.00;1.10;;;21.10;56.70;;;;;;5039388;28;20021;-63
2022/11/19 02:18:54;;;;;;;1.20;0.80;;;21.10;56.70;;;;;;5032169;28;20025;-65
2022/11/19 02:21:45;;;;;;;1.65;0.95;;;21.10;56.70;;;;;;5028304;28;20068;-65
2022/11/19 02:24:47;;;;;;;1.30;0.80;;;21.00;56.70;;;;;;5029601;28;20021;-64
2022/11/19 02:27:37;;;;;;;1.20;0.75;;;21.00;56.70;;;;;;5040477;28;20025;-66
2022/11/19 02:30:10;;;;;;;1.20;0.70;;;21.00;56.70;;;;;;5032068;28;20049;-66
2022/11/19 02:32:55;;;;;;;1.58;0.80;;;21.00;56.70;;;;;;5035634;28;20477;-68
2022/11/19 02:35:50;;;;;;;1.30;0.90;;;21.00;56.80;;;;;;5030669;28;20036;-64
2022/11/19 02:38:38;;;;;;;1.45;0.82;;;21.00;56.80;;;;;;5035466;28;20111;-66
2022/11/19 02:41:33;;;;;;;0.80;0.70;;;21.00;56.90;;;;;;5021990;28;20037;-65
2022/11/19 02:47:22;;;;;;;0.98;0.65;;;20.90;56.80;;;;;;5012615;28;20490;-65
2022/11/19 02:49:53;;;;;;;1.38;0.80;;;20.90;56.90;;;;;;5040527;28;20025;-66
2022/11/19 02:52:19;;;;;;;1.33;0.80;;;20.90;56.90;;;;;;5031902;28;20505;-63
2022/11/19 02:54:45;;;;;;;1.40;0.77;;;20.90;56.90;;;;;;5037473;28;20021;-64
2022/11/19 02:57:12;;;;;;;0.65;0.65;;;20.90;56.90;;;;;;5032442;28;20391;-64
2022/11/19 03:06:07;;;;;;;1.02;0.68;;;20.80;57.00;;;;;;4997433;28;20035;-64
2022/11/19 03:08:33;;;;;;;0.95;0.70;;;20.80;57.10;;;;;;5034122;28;20359;-65
2022/11/19 03:11:07;;;;;;;0.90;0.70;;;20.80;57.10;;;;;;5032106;28;20055;-64
2022/11/19 03:16:42;;;;;;;;;;;20.70;57.10;;;;;;4986445;28;20060;-64
2022/11/19 03:19:33;;;;;;;0.63;0.60;;;20.70;57.10;;;;;;5036809;28;19904;-66
2022/11/19 03:22:28;;;;;;;1.10;0.70;;;20.70;57.10;;;;;;5038943;28;20025;-65
2022/11/19 03:25:01;;;;;;;1.27;0.75;;;20.70;57.10;;;;;;5039842;28;20557;-64
2022/11/19 03:27:49;;;;;;;0.77;0.70;;;20.70;57.20;;;;;;5040470;28;20022;-65
2022/11/19 03:30:16;;;;;;;0.73;0.52;;;20.70;57.20;;;;;;5036356;28;20037;-64
2022/11/19 03:32:50;;;;;;;0.88;0.80;;;20.60;57.20;;;;;;5024415;28;20078;-64
2022/11/19 03:35:21;;;;;;;1.67;0.90;;;20.70;57.80;;;;;;5033539;28;20465;-66
2022/11/19 03:37:51;;;;;;;1.10;0.80;;;20.70;57.30;;;;;;5036215;28;20033;-64
2022/11/19 03:40:17;;;;;;;;;;;20.60;57.20;;;;;;5038621;28;20058;-64
2022/11/19 03:42:46;;;;;;;0.68;0.60;;;20.60;57.20;;;;;;5032721;28;19913;-65
2022/11/19 03:45:19;;;;;;;1.40;0.75;;;20.60;57.30;;;;;;5036827;28;20071;-65
2022/11/19 03:47:49;;;;;;;1.25;0.85;;;20.60;57.30;;;;;;5032481;28;20033;-64
2022/11/19 03:50:29;;;;;;;0.80;0.70;;;20.60;57.30;;;;;;5027796;28;20029;-66
2022/11/19 03:52:56;;;;;;;0.98;0.70;;;20.60;57.30;;;;;;5034056;28;20052;-65
2022/11/19 03:55:32;;;;;;;1.05;0.70;;;20.60;57.40;;;;;;5033361;28;20030;-64
2022/11/19 03:58:05;;;;;;;1.08;0.65;;;20.60;57.30;;;;;;5042159;28;20021;-66
2022/11/19 04:00:31;;;;;;;1.35;0.70;;;20.60;57.90;;;;;;5043827;28;20025;-66
2022/11/19 04:02:56;;;;;;;1.10;0.80;;;20.60;57.90;;;;;;5037500;28;20427;-65
2022/11/19 04:05:22;;;;;;;1.17;0.70;;;20.60;57.40;;;;;;5035582;28;20027;-66
2022/11/19 04:07:48;;;;;;;0.80;0.68;;;20.60;57.40;;;;;;5039946;28;20033;-64
2022/11/19 04:10:14;;;;;;;0.75;0.60;;;20.60;57.40;;;;;;5034924;28;20025;-66
2022/11/19 04:12:39;;;;;;;1.35;0.63;;;20.60;57.40;;;;;;5034000;28;20716;-66
2022/11/19 04:15:05;;;;;;;1.30;0.70;;;20.60;58.00;;;;;;5030553;28;20029;-64
2022/11/19 04:17:31;;;;;;;0.60;0.60;;;20.60;57.40;;;;;;5036120;28;20037;-64
2022/11/19 04:19:57;;;;;;;0.65;0.55;;;20.60;57.40;;;;;;5031513;28;20492;-65
2022/11/19 04:22:22;;;;;;;0.80;0.60;;;20.60;57.40;;;;;;5019874;28;20022;-64
2022/11/19 04:24:48;;;;;;;0.82;0.65;;;20.50;57.40;;;;;;5032515;28;20397;-64
2022/11/19 04:27:13;;;;;;;0.75;0.60;;;20.50;57.40;;;;;;5019909;28;20022;-66
2022/11/19 04:29:39;;;;;;;0.47;0.45;;;20.50;57.40;;;;;;5035298;28;20415;-67
2022/11/19 04:32:05;;;;;;;0.73;0.63;;;20.50;57.40;;;;;;5032440;28;20033;-64
2022/11/19 04:34:30;;;;;;;1.02;0.70;;;20.50;57.40;;;;;;5033662;28;20048;-66
2022/11/19 04:36:56;;;;;;;0.85;0.60;;;20.50;57.40;;;;;;5043416;28;20029;-63
2022/11/19 04:39:21;;;;;;;0.63;0.55;;;20.50;57.40;;;;;;5037446;28;20045;-65
2022/11/19 04:41:47;;;;;;;0.65;0.60;;;20.50;57.40;;;;;;5026224;28;20142;-66
2022/11/19 04:44:13;;;;;;;1.27;0.70;;;20.50;57.40;;;;;;5039270;28;20487;-64
2022/11/19 04:46:38;;;;;;;0.77;0.50;;;20.50;57.40;;;;;;5020282;28;20040;-64
2022/11/19 04:49:04;;;;;;;0.90;0.70;;;20.50;57.40;;;;;;5033756;28;20030;-65
2022/11/19 04:51:30;;;;;;;0.63;0.60;;;20.50;57.40;;;;;;5034008;28;20084;-66
2022/11/19 04:53:55;;;;;;;0.50;0.50;;;20.50;57.40;;;;;;5033103;28;20029;-65
2022/11/19 04:56:21;;;;;;;0.90;0.70;;;20.50;57.40;;;;;;5028148;28;20516;-64
2022/11/19 04:58:47;;;;;;;1.00;0.70;;;20.50;57.50;;;;;;5027650;28;20051;-65
2022/11/19 05:01:12;;;;;;;0.50;0.50;;;20.40;57.40;;;;;;5030563;28;20034;-63
2022/11/19 05:03:38;;;;;;;0.75;0.60;;;20.50;57.50;;;;;;5033831;28;20022;-66
2022/11/19 05:06:04;;;;;;;0.80;0.70;;;20.50;57.50;;;;;;5035621;28;20026;-65
2022/11/19 05:08:29;;;;;;;1.10;0.60;;;20.50;57.50;;;;;;5034966;28;20033;-65
2022/11/19 05:10:55;;;;;;;1.00;0.60;;;20.40;57.40;;;;;;5037849;28;20486;-65
2022/11/19 05:13:21;;;;;;;0.90;0.63;;;20.40;57.40;;;;;;5036487;28;20079;-63
2022/11/19 05:15:46;;;;;;;1.05;0.70;;;20.50;58.00;;;;;;5021331;28;20374;-63
2022/11/19 05:18:12;;;;;;;0.70;0.55;;;20.40;57.40;;;;;;5026917;28;20030;-64
2022/11/19 05:20:38;;;;;;;0.60;0.50;;;20.40;57.50;;;;;;5016580;28;20507;-65
2022/11/19 05:23:04;;;;;;;1.23;0.60;;;20.40;57.50;;;;;;5036303;28;20026;-64
2022/11/19 05:25:30;;;;;;;0.70;0.60;;;20.40;58.00;;;;;;5033960;28;20021;-65
2022/11/19 05:27:55;;;;;;;1.02;0.70;;;20.40;57.50;;;;;;5039501;28;20384;-65
2022/11/19 05:30:21;;;;;;;0.80;0.60;;;20.40;57.50;;;;;;5039656;28;20025;-65
2022/11/19 05:32:47;;;;;;;0.65;0.55;;;20.40;57.50;;;;;;5032264;28;20028;-66
2022/11/19 05:35:12;;;;;;;0.50;0.50;;;20.40;57.50;;;;;;5034371;28;20026;-65
2022/11/19 05:37:38;;;;;;;0.68;0.60;;;20.40;57.50;;;;;;5034321;28;20025;-65
2022/11/19 05:40:04;;;;;;;0.93;0.68;;;20.40;57.50;;;;;;5039118;28;20123;-65
2022/11/19 05:42:30;;;;;;;0.70;0.60;;;20.40;57.50;;;;;;5044061;28;20032;-66
2022/11/19 05:44:56;;;;;;;1.00;0.70;;;20.40;57.50;;;;;;5040369;28;20468;-64
2022/11/19 05:47:21;;;;;;;0.52;0.52;;;20.40;57.50;;;;;;5021817;28;20115;-65
2022/11/19 05:49:47;;;;;;;0.73;0.60;;;20.40;57.50;;;;;;5036854;28;20032;-64
2022/11/19 05:52:13;;;;;;;0.80;0.60;;;20.40;57.50;;;;;;5033824;28;20495;-64
2022/11/19 05:54:39;;;;;;;0.90;0.60;;;20.40;57.50;;;;;;5033759;28;20021;-64
2022/11/19 05:57:04;;;;;;;0.80;0.70;;;20.40;57.50;;;;;;5034132;28;20034;-64
2022/11/19 05:59:31;;;;;;;0.70;0.60;;;20.40;57.50;;;;;;5038251;28;20065;-66
2022/11/19 06:01:57;;;;;;;0.75;0.63;;;20.40;57.50;;;;;;5039748;28;20479;-65
2022/11/19 06:04:22;;;;;;;0.50;0.50;;;20.40;57.50;;;;;;5038611;28;20104;-65
2022/11/19 06:06:48;;;;;;;0.57;0.50;;;20.40;57.60;;;;;;5043725;28;20025;-66
2022/11/19 06:09:14;;;;;;;0.50;0.50;;;20.40;57.60;;;;;;5034869;28;20076;-66
2022/11/19 06:11:51;;;;;;;1.30;0.50;;;20.40;57.60;;;;;;5034263;28;20029;-67
2022/11/19 06:14:21;;;;;;;0.50;0.50;;;20.40;57.60;;;;;;5039735;28;20032;-64
2022/11/19 06:16:47;;;;;;;0.50;0.50;;;20.40;57.60;;;;;;5028781;28;20493;-64
2022/11/19 06:19:13;;;;;;;0.55;0.55;;;20.40;57.60;;;;;;5042401;28;20041;-66
2022/11/19 06:21:38;;;;;;;0.80;0.50;;;20.40;57.60;;;;;;5040612;28;20036;-69
2022/11/19 06:24:04;;;;;;;0.52;0.50;;;20.30;57.50;;;;;;5034948;28;20396;-63
2022/11/19 06:26:30;;;;;;;0.82;0.60;;;20.30;57.60;;;;;;5038252;28;20041;-66
2022/11/19 06:28:56;;;;;;;0.80;0.60;;;20.30;57.60;;;;;;5033997;28;20385;-63
2022/11/19 06:31:22;;;;;;;0.60;0.60;;;20.30;57.60;;;;;;5030658;28;20023;-66
2022/11/19 06:33:48;;;;;;;1.00;0.60;;;20.30;57.60;;;;;;5032966;28;20030;-66
2022/11/19 06:36:14;;;;;;;0.88;0.60;;;20.30;57.60;;;;;;5030968;28;20033;-65
2022/11/19 06:38:39;;;;;;;0.80;0.63;;;20.30;57.60;;;;;;5042613;28;20550;-67
2022/11/19 06:41:05;;;;;;;0.80;0.70;;;20.30;57.60;;;;;;5042487;28;20033;-64
2022/11/19 06:43:31;;;;;;;0.93;0.60;;;20.30;58.20;;;;;;5041839;28;20023;-65
2022/11/19 06:45:57;;;;;;;0.80;0.70;;;20.30;57.60;;;;;;5039160;28;20027;-64
2022/11/19 06:48:22;;;;;;;1.15;0.50;;;20.30;57.70;;;;;;5039429;28;20480;-64
2022/11/19 06:50:48;;;;;;;0.70;0.55;;;20.30;57.70;;;;;;5034550;28;20024;-66
2022/11/19 06:53:13;;;;;;;0.80;0.60;;;20.30;57.70;;;;;;5035760;28;20025;-64
2022/11/19 06:55:39;;;;;;;0.60;0.60;;;20.30;57.70;;;;;;5034395;28;20496;-64
2022/11/19 06:58:06;;;;;;;1.55;0.75;;;20.30;57.70;;;;;;5039587;28;20033;-63
2022/11/19 07:00:33;;;;;;;0.50;0.50;;;20.30;57.70;;;;;;5036295;28;20026;-65
2022/11/19 07:02:59;;;;;;;0.43;0.43;;;20.30;57.70;;;;;;5034364;28;20034;-64
2022/11/19 07:05:25;;;;;;;0.80;0.55;;;20.20;57.70;;;;;;5034804;28;20029;-64
2022/11/19 07:07:51;;;;;;;1.20;0.70;;;20.30;57.70;;;;;;5028563;28;20037;-64
2022/11/19 07:10:17;;;;;;;0.77;0.70;;;20.30;57.70;;;;;;5034545;28;20025;-64
2022/11/19 07:12:42;;;;;;;0.50;0.50;;;20.30;57.70;;;;;;5033735;28;20033;-64
2022/11/19 07:15:09;;;;;;;0.65;0.50;;;20.20;57.70;;;;;;5031642;28;20021;-64
2022/11/19 07:17:35;;;;;;;0.60;0.60;;;20.20;57.70;;;;;;5046651;28;20114;-64
2022/11/19 07:20:00;;;;;;;0.60;0.60;;;20.30;57.70;;;;;;5042887;28;20079;-66
2022/11/19 07:22:26;;;;;;;0.88;0.52;;;20.20;57.70;;;;;;5037619;28;20033;-65
2022/11/19 07:24:52;;;;;;;0.95;0.60;;;20.20;57.70;;;;;;5008501;28;20090;-65
2022/11/19 07:27:18;;;;;;;0.60;0.60;;;20.20;57.70;;;;;;5032576;28;20032;-65
2022/11/19 07:29:43;;;;;;;0.80;0.60;;;20.20;57.70;;;;;;5034498;28;20492;-64
2022/11/19 07:32:09;;;;;;;1.05;0.60;;;20.20;57.70;;;;;;5034610;28;20146;-65
2022/11/19 07:34:34;;;;;;;0.68;0.50;;;20.20;57.70;;;;;;5029063;28;20108;-65
2022/11/19 07:37:00;;;;;;;0.85;0.50;;;20.20;57.70;;;;;;5042001;28;20083;-66
2022/11/19 07:39:26;;;;;;;0.75;0.60;;;20.20;57.70;;;;;;5035043;28;20510;-66
2022/11/19 07:44:36;;;;;;;0.70;0.60;;;20.20;57.70;;;;;;5032628;28;20060;-65
2022/11/19 07:47:01;;;;;;;0.77;0.65;;;20.20;57.70;;;;;;5034906;28;20056;-65
2022/11/19 07:49:27;;;;;;;0.73;0.50;;;20.20;57.70;;;;;;5037509;28;20067;-64
2022/11/19 07:51:53;;;;;;;0.63;0.60;;;20.20;57.80;;;;;;5033142;28;20508;-65
2022/11/19 07:54:19;;;;;;;0.80;0.60;;;20.20;57.80;;;;;;5037682;28;20049;-65
2022/11/19 07:56:44;;;;;;;0.77;0.60;;;20.20;57.80;;;;;;5040448;28;20484;-65
2022/11/19 07:59:10;;;;;;;0.93;0.60;;;20.20;57.80;;;;;;5034406;28;20033;-66
2022/11/19 08:01:36;;;;;;;1.88;0.60;;;20.20;57.80;;;;;;5035119;28;20033;-64
2022/11/19 08:04:03;;;;;;;0.55;0.55;;;20.20;58.40;;;;;;5036461;28;20478;-65
2022/11/19 08:06:29;;;;;;;0.70;0.70;;;20.10;57.80;;;;;;5031639;28;20023;-65
2022/11/19 08:08:55;;;;;;;0.80;0.60;;;20.20;57.90;;;;;;5036860;28;20372;-64
2022/11/19 08:11:21;;;;;;;0.82;0.60;;;20.10;57.80;;;;;;5023375;28;20061;-64
2022/11/19 08:13:47;;;;;;;1.08;0.73;;;20.10;57.80;;;;;;5019651;28;20024;-65
2022/11/19 08:19:01;;;;;;;0.95;0.73;;;20.10;58.50;;;;;;5027849;28;20032;-64
2022/11/19 08:21:26;;;;;;;1.83;0.90;;;20.10;58.10;;;;;;5023480;28;20078;-65
2022/11/19 08:23:52;;;;;;;1.70;0.90;;;20.10;58.10;;;;;;5034913;28;20033;-64
2022/11/19 08:26:17;;;;;;;1.10;0.73;;;20.10;58.20;;;;;;5035516;28;20044;-66
2022/11/19 08:28:43;;;;;;;1.27;0.80;;;20.10;58.30;;;;;;5038497;28;20563;-65
2022/11/19 08:31:09;;;;;;;1.38;0.60;;;20.10;58.30;;;;;;5036176;28;20032;-64
2022/11/19 08:33:35;;;;;;;0.88;0.60;;;20.10;58.30;;;;;;5040621;28;20078;-64
2022/11/19 08:36:01;;;;;;;1.70;0.80;;;20.10;58.40;;;;;;5033244;28;20369;-65
2022/11/19 08:38:27;;;;;;;3.25;0.80;;;20.10;58.40;;;;;;5028498;28;20040;-64
2022/11/19 08:42:58;;;;;;;1.23;0.70;;;20.10;58.40;;;;;;5036263;28;20037;-65
2022/11/19 08:43:39;;;;;;;0.73;0.70;;;20.10;58.40;;;;;;5030227;28;20025;-64
2022/11/19 08:46:06;;;;;;;1.55;0.80;;;20.10;59.00;;;;;;5035838;28;20104;-65
2022/11/19 08:48:32;;;;;;;1.17;0.80;;;20.10;59.00;;;;;;5033425;28;20022;-66
2022/11/19 08:50:58;;;;;;;1.00;0.70;;;20.10;58.50;;;;;;5029923;28;20026;-65
2022/11/19 08:53:23;;;;;;;1.48;0.70;;;20.10;58.50;;;;;;5028872;28;20037;-64
2022/11/19 08:55:50;;;;;;;1.30;0.90;;;20.10;58.70;;;;;;5031879;28;20472;-64
2022/11/19 08:58:16;;;;;;;0.93;0.70;;;20.10;58.70;;;;;;5037098;28;20017;-65
2022/11/19 09:00:42;;;;;;;0.68;0.60;;;20.20;58.90;;;;;;5042785;28;20388;-66
2022/11/19 09:03:07;;;;;;;1.17;0.77;;;20.20;58.90;;;;;;5039822;28;20114;-64
2022/11/19 09:05:33;;;;;;;1.88;0.60;;;20.20;58.90;;;;;;5034505;28;20461;-65
2022/11/19 09:07:58;;;;;;;0.70;0.68;;;20.30;59.00;;;;;;5029074;28;20476;-66
2022/11/19 09:10:24;;;;;;;1.05;0.60;;;20.30;59.00;;;;;;5039073;28;20493;-65
2022/11/19 09:12:51;;;;;;;0.70;0.60;;;20.30;59.00;;;;;;5036850;28;20060;-64
2022/11/19 09:15:17;;;;;;;2.05;0.80;;;20.40;59.10;;;;;;5035053;28;20030;-65
2022/11/19 09:17:43;;;;;;;1.10;0.50;;;20.40;59.00;;;;;;5034139;28;20544;-65
2022/11/19 09:20:09;;;;;;;1.05;0.70;;;20.40;59.00;;;;;;5037963;28;20025;-65
2022/11/19 09:22:35;;;;;;;0.93;0.70;;;20.40;59.00;;;;;;5038399;28;20043;-66
2022/11/19 09:25:01;;;;;;;1.33;0.80;;;20.40;59.00;;;;;;5041124;28;20498;-65
2022/11/19 09:27:27;;;;;;;1.08;0.75;;;20.50;59.50;;;;;;5033448;28;20025;-65
2022/11/19 09:29:52;;;;;;;1.90;0.77;;;20.50;58.90;;;;;;5021310;28;20060;-65
2022/11/19 09:32:18;;;;;;;1.35;0.73;;;20.50;59.00;;;;;;5037939;28;20026;-64
2022/11/19 09:34:43;;;;;;;1.63;0.65;;;20.50;58.90;;;;;;5018555;28;20102;-65
2022/11/19 09:37:10;;;;;;;1.08;0.70;;;20.50;58.90;;;;;;5017062;28;20455;-65
2022/11/19 09:39:36;;;;;;;1.05;0.68;;;20.50;58.90;;;;;;5039918;28;20045;-65
2022/11/19 09:42:26;;;;;;;1.75;0.70;;;20.50;58.80;;;;;;5034812;28;20040;-65
2022/11/19 09:45:09;;;;;;;1.55;0.95;;;20.50;58.80;;;;;;5037463;28;20021;-65
2022/11/19 09:47:41;;;;;;;0.90;0.70;;;20.50;58.90;;;;;;5037882;28;20519;-65
2022/11/19 09:50:18;;;;;;;1.08;0.80;;;20.50;58.90;;;;;;5032992;28;20056;-65
2022/11/19 09:52:48;;;;;;;1.33;0.80;;;20.50;58.90;;;;;;5031357;28;20583;-65
2022/11/19 09:55:34;;;;;;;2.97;0.80;;;20.50;58.90;;;;;;5027806;28;20035;-66
2022/11/19 09:58:04;;;;;;;1.10;0.70;;;20.50;58.90;;;;;;5043110;28;20029;-66
2022/11/19 10:00:31;;;;;;;1.38;0.80;;;20.50;58.90;;;;;;5045092;28;20025;-66
2022/11/19 10:03:00;;;;;;;0.95;0.70;;;20.40;58.80;;;;;;5036500;28;20165;-65
2022/11/19 10:05:50;;;;;;;1.20;0.90;;;20.50;58.90;;;;;;5036821;28;20104;-65
2022/11/19 10:08:18;;;;;;;1.17;0.70;;;20.50;58.90;;;;;;5039831;28;20032;-65
2022/11/19 10:11:03;;;;;;;0.95;0.70;;;20.50;58.90;;;;;;5018800;28;20545;-67
2022/11/19 10:14:07;;;;;;;1.33;0.75;;;20.50;58.90;;;;;;5033223;28;20056;-65
2022/11/19 10:16:39;;;;;;;1.33;0.70;;;20.50;58.90;;;;;;4975828;28;20048;-65
2022/11/19 10:19:40;;;;;;;0.75;0.70;;;20.50;58.80;;;;;;5037308;28;20460;-66
2022/11/19 10:22:21;;;;;;;1.05;0.65;;;20.50;58.80;;;;;;5009156;28;20045;-65
2022/11/19 10:25:09;;;;;;;1.02;0.73;;;20.40;58.80;;;;;;5039042;28;20057;-64
2022/11/19 10:27:55;;;;;;;0.88;0.73;;;20.40;58.90;;;;;;5030641;28;20030;-65
2022/11/19 10:30:27;;;;;;;1.38;0.63;;;20.50;59.00;;;;;;5006291;28;20592;-65
2022/11/19 10:33:03;;;;;;;0.77;0.65;;;20.50;58.80;;;;;;5030725;28;20032;-66
2022/11/19 10:35:49;;;;;;;1.23;0.80;;;20.50;58.80;;;;;;5040492;28;20099;-66
2022/11/19 10:38:25;;;;;;;1.10;0.70;;;20.50;58.60;;;;;;5043578;28;20025;-65
2022/11/19 10:40:56;;;;;;;1.70;0.63;;;20.50;58.70;;;;;;5035493;28;20025;-66
2022/11/19 10:43:31;;;;;;;1.15;0.80;;;20.40;58.70;;;;;;5034545;28;20030;-66
2022/11/19 10:45:59;;;;;;;1.83;0.80;;;20.40;58.60;;;;;;5032018;28;20485;-66
2022/11/19 10:48:38;;;;;;;0.82;0.60;;;20.40;58.50;;;;;;5032013;28;20052;-65
2022/11/19 10:51:22;;;;;;;0.80;0.70;;;20.40;58.50;;;;;;5030612;28;20472;-66
2022/11/19 10:53:50;;;;;;;0.90;0.65;;;20.40;58.40;;;;;;5037580;28;20171;-67
2022/11/19 10:56:21;;;;;;;2.08;0.85;;;20.40;58.50;;;;;;5040394;28;20429;-66
2022/11/19 10:59:02;;;;;;;1.45;0.77;;;20.40;58.50;;;;;;5039177;28;20472;-65
2022/11/19 11:01:31;;;;;;;1.25;0.75;;;20.40;58.50;;;;;;5039091;28;20544;-66
2022/11/19 11:04:06;;;;;;;1.40;0.77;;;20.40;58.50;;;;;;5031123;28;20021;-68
2022/11/19 11:06:55;;;;;;;1.33;0.80;;;20.40;58.60;;;;;;5038443;28;20052;-66
2022/11/19 11:09:40;;;;;;;1.00;0.70;;;20.40;58.50;;;;;;5032731;28;20049;-66
2022/11/19 11:15:23;;;;;;;0.93;0.70;;;20.40;58.50;;;;;;4996330;28;20033;-66
2022/11/19 11:18:07;;;;;;;1.15;0.75;;;20.40;58.60;;;;;;5032427;28;20034;-66
2022/11/19 11:20:35;;;;;;;3.22;1.10;;;20.40;58.60;;;;;;5038311;28;20021;-65
2022/11/19 11:23:05;;;;;;;0.70;0.60;;;20.40;58.60;;;;;;5033655;28;20026;-65
2022/11/19 11:25:31;;;;;;;0.98;0.70;;;20.40;58.70;;;;;;5030415;28;20029;-65
2022/11/19 11:28:05;;;;;;;0.68;0.65;;;20.40;58.70;;;;;;5017962;28;20489;-65
2022/11/19 11:30:31;;;;;;;1.58;0.75;;;20.40;58.70;;;;;;5036788;28;20075;-66
2022/11/19 11:33:16;;;;;;;2.00;0.80;;;20.40;58.70;;;;;;5040320;28;20028;-66
2022/11/19 11:35:44;;;;;;;0.82;0.60;;;20.40;58.80;;;;;;5039235;28;20041;-65
2022/11/19 11:38:10;;;;;;;0.85;0.68;;;20.40;58.80;;;;;;5039443;28;20026;-66
2022/11/19 11:40:36;;;;;;;1.23;0.70;;;20.40;58.70;;;;;;5033024;28;20071;-65
2022/11/19 11:43:02;;;;;;;1.15;0.77;;;20.40;58.80;;;;;;5039554;28;20020;-65
2022/11/19 11:45:35;;;;;;;1.10;0.80;;;20.40;58.80;;;;;;5038618;28;20038;-65
2022/11/19 11:48:16;;;;;;;1.05;0.70;;;20.40;58.80;;;;;;5037144;28;20036;-65
2022/11/19 11:50:45;;;;;;;0.80;0.60;;;20.40;58.70;;;;;;5036812;28;20403;-65
2022/11/19 11:53:14;;;;;;;1.20;0.80;;;20.40;58.70;;;;;;5033755;28;20033;-64
2022/11/19 11:55:40;;;;;;;0.60;0.60;;;20.40;58.70;;;;;;5026844;28;20026;-66
2022/11/19 11:58:26;;;;;;;1.27;0.80;;;20.40;58.60;;;;;;5036458;28;20444;-65
2022/11/19 12:01:13;;;;;;;1.00;0.65;;;20.40;58.60;;;;;;5011615;28;20079;-65
2022/11/19 12:03:54;;;;;;;0.90;0.70;;;20.40;58.70;;;;;;5034064;28;20472;-65
2022/11/19 12:06:30;;;;;;;1.45;0.82;;;20.40;58.60;;;;;;5035717;28;20036;-65
2022/11/19 12:09:16;;;;;;;1.63;0.80;;;20.40;58.60;;;;;;5035149;28;20428;-65
2022/11/19 12:12:04;;;;;;;1.10;0.80;;;20.40;58.60;;;;;;5044691;28;20037;-65
2022/11/19 12:14:37;;;;;;;1.10;0.73;;;20.40;58.70;;;;;;5037998;28;20072;-66
2022/11/19 12:17:39;;;;;;;1.35;0.80;;;20.40;58.60;;;;;;5028038;28;20040;-65
2022/11/19 12:20:27;;;;;;;1.23;0.70;;;20.40;58.80;;;;;;5023695;28;20044;-66
2022/11/19 12:23:10;;;;;;;0.65;0.55;;;20.40;58.70;;;;;;5028095;28;20029;-65
2022/11/19 12:25:46;;;;;;;0.85;0.60;;;20.40;58.70;;;;;;5036934;28;20362;-65
2022/11/19 12:28:25;;;;;;;0.93;0.70;;;20.40;58.80;;;;;;5030803;28;20384;-65
2022/11/19 12:31:18;;;;;;;1.33;0.63;;;20.40;58.80;;;;;;5029013;28;20022;-66
2022/11/19 12:33:44;;;;;;;1.00;0.70;;;20.40;58.70;;;;;;5026905;28;20025;-65
2022/11/19 12:36:13;;;;;;;0.85;0.60;;;20.40;58.70;;;;;;5034950;28;20484;-65
2022/11/19 12:39:15;;;;;;;0.82;0.55;;;20.40;59.20;;;;;;5023307;28;20506;-64
2022/11/19 12:42:19;;;;;;;1.05;0.70;;;20.50;59.30;;;;;;5032331;28;20121;-66
2022/11/19 12:45:16;;;;;;;1.10;0.65;;;20.60;59.40;;;;;;4958238;28;20035;-65
2022/11/19 12:48:03;;;;;;;1.60;0.88;;;20.60;59.40;;;;;;5039551;28;20392;-65
2022/11/19 12:50:48;;;;;;;0.90;0.70;;;20.70;58.80;;;;;;5036484;28;20021;-66
2022/11/19 12:53:23;;;;;;;1.08;0.70;;;20.80;58.50;;;;;;5010891;28;20033;-66
2022/11/19 12:55:54;;;;;;;1.50;0.70;;;20.90;58.50;;;;;;5029463;28;20029;-65
2022/11/19 12:58:46;;;;;;;1.15;0.70;;;21.00;58.10;;;;;;5038535;28;20601;-65
2022/11/19 13:01:18;;;;;;;1.48;0.70;;;21.00;58.10;;;;;;5036858;28;20528;-66
2022/11/19 13:04:01;;;;;;;1.00;0.70;;;21.00;58.10;;;;;;5034506;28;20025;-65
2022/11/19 13:06:41;;;;;;;0.80;0.60;;;21.00;58.20;;;;;;5016657;28;20021;-65
2022/11/19 13:09:17;;;;;;;0.70;0.65;;;21.00;58.10;;;;;;5023346;28;20088;-66
2022/11/19 13:11:50;;;;;;;1.23;0.60;;;21.00;58.20;;;;;;5029124;28;20045;-67
2022/11/19 13:14:43;;;;;;;0.68;0.50;;;21.10;58.40;;;;;;5038187;28;20447;-67
2022/11/19 13:17:36;;;;;;;0.88;0.68;;;21.10;58.50;;;;;;5033648;28;20036;-67
2022/11/19 13:20:06;;;;;;;0.95;0.68;;;21.20;58.50;;;;;;5032845;28;20029;-65
2022/11/19 13:22:36;;;;;;;0.60;0.52;;;21.20;58.60;;;;;;5020985;28;20544;-66
2022/11/19 13:25:15;;;;;;;0.82;0.60;;;21.20;58.40;;;;;;5038042;28;20025;-66
2022/11/19 13:27:42;;;;;;;1.03;0.60;;;21.20;58.30;;;;;;5036001;28;20486;-66
2022/11/19 13:30:27;;;;;;;2.50;1.05;;;21.20;58.20;;;;;;5031198;28;20084;-65
2022/11/19 13:33:46;;;;;;;0.98;0.55;;;21.20;58.00;;;;;;5034321;28;20450;-67
2022/11/19 13:36:22;;;;;;;1.52;0.63;;;21.30;58.20;;;;;;4996893;28;20045;-65
2022/11/19 13:38:55;;;;;;;4.10;0.93;;;21.30;58.50;;;;;;5032019;28;20049;-65